createdAt,value
2019-01-17T00:02:11.561Z,5.50
2019-01-17T00:04:40.071Z,5.40
2019-01-17T00:07:20.877Z,6.00
2019-01-17T00:09:52.591Z,5.60
2019-01-17T00:12:18.700Z,6.10
2019-01-17T00:14:50.698Z,5.80
2019-01-17T00:17:28.488Z,6.27
2019-01-17T00:19:57.420Z,6.07
2019-01-17T00:22:29.059Z,6.23
2019-01-17T00:25:01.134Z,6.13
2019-01-17T00:27:29.855Z,6.67
2019-01-17T00:29:55.899Z,6.00
2019-01-17T00:32:24.254Z,6.43
2019-01-17T00:34:50.324Z,6.17
2019-01-17T00:37:32.251Z,6.70
2019-01-17T00:40:10.250Z,6.60
2019-01-17T00:42:36.294Z,6.73
2019-01-17T00:45:08.095Z,6.70
2019-01-17T00:47:49.090Z,6.73
2019-01-17T00:50:33.172Z,7.33
2019-01-17T00:52:59.219Z,6.93
2019-01-17T00:55:41.183Z,7.27
2019-01-17T00:58:18.915Z,6.97
2019-01-17T01:00:56.960Z,8.53
2019-01-17T01:03:25.716Z,7.80
2019-01-17T01:05:51.759Z,8.20
2019-01-17T01:08:33.595Z,7.90
2019-01-17T01:11:02.318Z,7.90
2019-01-17T01:13:34.091Z,8.37
2019-01-17T01:16:00.259Z,9.03
2019-01-17T01:18:35.040Z,9.00
2019-01-17T01:21:17.233Z,9.33
2019-01-17T01:23:59.461Z,8.93
2019-01-17T01:26:43.350Z,8.90
2019-01-17T01:29:21.435Z,8.70
2019-01-17T01:31:59.285Z,9.40
2019-01-17T01:34:25.370Z,8.77
2019-01-17T01:36:51.470Z,9.00
2019-01-17T01:39:26.442Z,9.27
2019-01-17T01:41:58.301Z,9.40
2019-01-17T01:44:40.623Z,9.87
2019-01-17T01:47:06.650Z,9.37
2019-01-17T01:49:35.604Z,9.10
2019-01-17T01:52:04.345Z,9.47
2019-01-17T01:54:28.708Z,9.73
2019-01-17T01:56:53.192Z,10.20
2019-01-17T01:59:17.592Z,9.17
2019-01-17T02:01:42.012Z,9.47
2019-01-17T02:04:06.434Z,8.93
2019-01-17T02:06:30.842Z,8.83
2019-01-17T02:08:55.239Z,8.93
2019-01-17T02:11:19.620Z,9.00
2019-01-17T02:13:44.514Z,9.87
2019-01-17T02:16:11.230Z,8.77
2019-01-17T02:18:35.662Z,8.87
2019-01-17T02:21:00.059Z,8.37
2019-01-17T02:23:24.473Z,7.57
2019-01-17T02:25:48.859Z,8.80
2019-01-17T02:28:13.259Z,8.77
2019-01-17T02:30:37.752Z,8.57
2019-01-17T02:33:02.168Z,9.37
2019-01-17T02:35:26.586Z,8.67
2019-01-17T02:37:50.996Z,8.33
2019-01-17T02:40:15.484Z,8.40
2019-01-17T02:42:39.942Z,7.70
2019-01-17T02:45:06.089Z,9.43
2019-01-17T02:47:30.479Z,8.10
2019-01-17T02:49:54.862Z,7.70
2019-01-17T02:52:19.291Z,8.87
2019-01-17T02:54:43.690Z,8.57
2019-01-17T02:57:08.099Z,8.70
2019-01-17T02:59:32.490Z,8.80
2019-01-17T03:01:56.923Z,8.67
2019-01-17T03:04:21.328Z,8.73
2019-01-17T03:06:45.704Z,9.10
2019-01-17T03:09:10.129Z,9.13
2019-01-17T03:11:34.542Z,9.17
2019-01-17T03:13:58.956Z,8.67
2019-01-17T03:16:23.348Z,9.07
2019-01-17T03:18:47.773Z,9.80
2019-01-17T03:21:12.174Z,9.17
2019-01-17T03:23:36.577Z,9.13
2019-01-17T03:26:00.970Z,8.93
2019-01-17T03:28:25.367Z,8.87
2019-01-17T03:30:49.869Z,9.00
2019-01-17T03:33:14.243Z,8.67
2019-01-17T03:35:38.681Z,9.27
2019-01-17T03:38:03.063Z,8.57
2019-01-17T03:40:27.465Z,8.17
2019-01-17T03:42:51.869Z,8.10
2019-01-17T03:45:16.267Z,8.00
2019-01-17T03:47:40.831Z,7.83
2019-01-17T03:50:08.626Z,8.00
2019-01-17T03:52:33.024Z,7.17
2019-01-17T03:54:57.403Z,7.57
2019-01-17T03:57:21.781Z,6.57
2019-01-17T03:59:46.192Z,6.87
2019-01-17T04:02:10.648Z,6.67
2019-01-17T04:04:35.065Z,6.93
2019-01-17T04:06:59.463Z,6.73
2019-01-17T04:09:23.924Z,7.07
2019-01-17T04:11:48.299Z,6.73
2019-01-17T04:14:12.727Z,6.83
2019-01-17T04:16:37.121Z,6.53
2019-01-17T04:19:01.499Z,7.07
2019-01-17T04:21:25.908Z,7.03
2019-01-17T04:23:50.293Z,7.70
2019-01-17T04:26:14.700Z,6.63
2019-01-17T04:28:39.091Z,6.73
2019-01-17T04:31:03.508Z,7.77
2019-01-17T04:33:27.906Z,7.73
2019-01-17T04:35:52.376Z,7.47
2019-01-17T04:38:16.778Z,7.33
2019-01-17T04:40:41.179Z,7.30
2019-01-17T04:43:05.591Z,7.87
2019-01-17T04:45:29.973Z,7.20
2019-01-17T04:47:54.385Z,7.57
2019-01-17T04:50:18.781Z,7.43
2019-01-17T04:52:43.273Z,8.20
2019-01-17T04:55:09.289Z,7.17
2019-01-17T04:57:33.723Z,6.27
2019-01-17T04:59:58.103Z,5.70
2019-01-17T05:02:22.675Z,5.77
2019-01-17T05:04:47.073Z,5.07
2019-01-17T05:07:11.456Z,5.10
2019-01-17T05:09:35.873Z,4.40
2019-01-17T05:12:00.258Z,4.00
2019-01-17T05:14:24.693Z,4.13
2019-01-17T05:16:51.404Z,4.00
2019-01-17T05:19:15.799Z,3.80
2019-01-17T05:21:40.225Z,3.53
2019-01-17T05:24:04.693Z,3.60
2019-01-17T05:26:29.112Z,3.30
2019-01-17T05:28:53.502Z,3.20
2019-01-17T05:31:17.992Z,3.37
2019-01-17T05:33:42.373Z,3.20
2019-01-17T05:36:06.857Z,3.23
2019-01-17T05:38:31.239Z,3.63
2019-01-17T05:40:55.630Z,4.00
2019-01-17T05:43:20.031Z,3.70
2019-01-17T05:45:44.428Z,3.63
2019-01-17T05:48:08.849Z,4.33
2019-01-17T05:50:33.247Z,3.53
2019-01-17T05:52:57.663Z,4.30
2019-01-17T05:55:22.041Z,4.50
2019-01-17T05:57:46.451Z,4.40
2019-01-17T06:00:16.172Z,4.20
2019-01-17T06:02:40.576Z,4.40
2019-01-17T06:05:06.822Z,4.57
2019-01-17T06:07:31.267Z,4.20
2019-01-17T06:09:55.714Z,4.50
2019-01-17T06:12:20.242Z,4.60
2019-01-17T06:14:44.807Z,4.87
2019-01-17T06:17:09.315Z,4.73
2019-01-17T06:19:33.798Z,4.90
2019-01-17T06:21:58.195Z,4.57
2019-01-17T06:24:22.610Z,5.37
2019-01-17T06:26:47.026Z,4.73
2019-01-17T06:29:11.433Z,4.87
2019-01-17T06:31:35.876Z,4.93
2019-01-17T06:34:00.261Z,4.90
2019-01-17T06:36:24.636Z,5.00
2019-01-17T06:38:49.059Z,4.90
2019-01-17T06:41:13.460Z,4.37
2019-01-17T06:43:37.877Z,4.63
2019-01-17T06:46:02.283Z,4.90
2019-01-17T06:48:26.676Z,4.43
2019-01-17T06:50:51.082Z,4.83
2019-01-17T06:53:15.474Z,4.40
2019-01-17T06:55:39.885Z,5.23
2019-01-17T06:58:04.336Z,4.60
2019-01-17T07:00:28.755Z,4.87
2019-01-17T07:02:53.136Z,4.53
2019-01-17T07:05:17.517Z,4.97
2019-01-17T07:07:41.985Z,4.57
2019-01-17T07:10:09.266Z,5.37
2019-01-17T07:12:33.679Z,5.47
2019-01-17T07:14:58.060Z,4.83
2019-01-17T07:17:22.459Z,4.70
2019-01-17T07:19:46.843Z,4.67
2019-01-17T07:22:11.232Z,4.93
2019-01-17T07:24:35.659Z,5.47
2019-01-17T07:27:00.133Z,4.53
2019-01-17T07:29:24.532Z,4.73
2019-01-17T07:31:48.951Z,4.63
2019-01-17T07:34:13.332Z,4.90
2019-01-17T07:36:37.760Z,4.60
2019-01-17T07:39:02.153Z,5.00
2019-01-17T07:41:26.558Z,4.97
2019-01-17T07:43:50.939Z,4.53
2019-01-17T07:46:15.406Z,5.57
2019-01-17T07:48:39.822Z,4.63
2019-01-17T07:51:04.385Z,4.70
2019-01-17T07:53:28.781Z,4.70
2019-01-17T07:55:53.189Z,4.63
2019-01-17T07:58:17.579Z,4.37
2019-01-17T08:00:41.988Z,4.27
2019-01-17T08:03:06.378Z,4.30
2019-01-17T08:05:30.804Z,4.03
2019-01-17T08:07:55.187Z,4.40
2019-01-17T08:10:20.724Z,4.20
2019-01-17T08:12:45.375Z,5.07
2019-01-17T08:15:11.599Z,4.43
2019-01-17T08:17:36.044Z,4.53
2019-01-17T08:20:00.441Z,4.40
2019-01-17T08:22:24.859Z,4.10
2019-01-17T08:24:49.258Z,4.83
2019-01-17T08:27:13.652Z,4.70
2019-01-17T08:29:38.063Z,4.17
2019-01-17T08:32:02.474Z,4.10
2019-01-17T08:34:28.396Z,4.00
2019-01-17T08:36:52.833Z,4.07
2019-01-17T08:39:17.254Z,4.00
2019-01-17T08:41:41.656Z,4.13
2019-01-17T08:44:06.028Z,4.10
2019-01-17T08:46:30.468Z,4.10
2019-01-17T08:48:54.852Z,5.30
2019-01-17T08:51:19.254Z,4.63
2019-01-17T08:53:43.648Z,4.60
2019-01-17T08:56:08.130Z,4.57
2019-01-17T08:58:32.512Z,5.43
2019-01-17T09:00:56.925Z,5.37
2019-01-17T09:03:21.313Z,4.70
2019-01-17T09:05:45.700Z,4.57
2019-01-17T09:08:10.116Z,4.80
2019-01-17T09:10:34.502Z,8.40
2019-01-17T09:12:58.935Z,4.53
2019-01-17T09:15:26.238Z,4.63
2019-01-17T09:17:50.688Z,4.97
2019-01-17T09:20:15.486Z,4.90
2019-01-17T09:22:39.902Z,3.90
2019-01-17T09:25:06.216Z,4.60
2019-01-17T09:27:30.655Z,5.67
2019-01-17T09:29:55.033Z,4.17
2019-01-17T09:32:19.466Z,4.20
2019-01-17T09:34:43.869Z,3.57
2019-01-17T09:37:08.252Z,4.03
2019-01-17T09:39:32.726Z,3.70
2019-01-17T09:41:57.126Z,3.70
2019-01-17T09:44:21.519Z,3.57
2019-01-17T09:46:45.911Z,3.50
2019-01-17T09:49:10.314Z,4.30
2019-01-17T09:51:34.693Z,3.70
2019-01-17T09:53:59.072Z,3.80
2019-01-17T09:56:23.482Z,4.37
2019-01-17T09:58:47.870Z,5.43
2019-01-17T10:01:12.282Z,4.60
2019-01-17T10:03:36.694Z,4.40
2019-01-17T10:06:01.109Z,4.60
2019-01-17T10:08:25.487Z,4.03
2019-01-17T10:10:49.889Z,4.37
2019-01-17T10:13:14.311Z,4.17
2019-01-17T10:15:50.441Z,4.17
2019-01-17T10:18:33.059Z,4.20
2019-01-17T10:21:18.351Z,4.00
2019-01-17T10:24:13.804Z,3.80
2019-01-17T10:26:59.198Z,4.53
2019-01-17T10:29:29.515Z,4.33
2019-01-17T10:32:11.430Z,4.50
2019-01-17T10:34:38.896Z,3.60
2019-01-17T10:37:11.838Z,4.10
2019-01-17T10:39:39.359Z,4.00
2019-01-17T10:42:06.824Z,4.10
2019-01-17T10:44:42.953Z,4.60
2019-01-17T10:47:34.354Z,4.50
2019-01-17T10:50:04.542Z,4.40
2019-01-17T10:52:49.889Z,4.60
2019-01-17T10:55:35.001Z,4.93
2019-01-17T10:58:18.829Z,4.50
2019-01-17T11:01:11.744Z,5.17
2019-01-17T11:03:50.587Z,3.83
2019-01-17T11:06:26.353Z,4.97
2019-01-17T11:08:59.860Z,4.77
2019-01-17T11:11:27.322Z,4.60
2019-01-17T11:14:00.433Z,4.90
2019-01-17T11:16:36.557Z,4.47
2019-01-17T11:19:24.808Z,4.33
2019-01-17T11:22:14.411Z,4.67
2019-01-17T11:24:44.444Z,4.43
2019-01-17T11:27:23.130Z,4.30
2019-01-17T11:30:06.862Z,4.87
2019-01-17T11:32:34.303Z,5.00
2019-01-17T11:35:10.889Z,4.30
2019-01-17T11:37:50.031Z,4.20
2019-01-17T11:40:44.195Z,4.07
2019-01-17T11:43:14.320Z,3.70
2019-01-17T11:45:59.675Z,3.80
2019-01-17T11:48:29.772Z,4.00
2019-01-17T11:51:00.127Z,4.33
2019-01-17T11:53:30.242Z,4.30
2019-01-17T11:56:18.446Z,4.40
2019-01-17T11:59:02.267Z,4.63
2019-01-17T12:01:58.712Z,4.77
2019-01-17T12:04:31.408Z,5.80
2019-01-17T12:06:55.784Z,5.20
2019-01-17T12:09:20.214Z,4.90
2019-01-17T12:11:44.621Z,4.77
2019-01-17T12:14:09.070Z,5.10
2019-01-17T12:16:33.469Z,4.90
2019-01-17T12:18:57.836Z,5.23
2019-01-17T12:21:22.269Z,6.00
2019-01-17T12:23:46.672Z,5.70
2019-01-17T12:26:11.091Z,5.97
2019-01-17T12:28:35.480Z,5.93
2019-01-17T12:30:59.904Z,6.07
2019-01-17T12:33:24.288Z,4.67
2019-01-17T12:35:48.680Z,5.23
2019-01-17T12:38:13.104Z,5.13
2019-01-17T12:40:37.506Z,5.63
2019-01-17T12:43:01.925Z,5.20
2019-01-17T12:45:26.300Z,5.37
2019-01-17T12:47:52.347Z,5.53
2019-01-17T12:50:17.076Z,5.27
2019-01-17T12:52:41.476Z,5.93
2019-01-17T12:55:07.922Z,5.77
2019-01-17T12:57:32.303Z,5.90
2019-01-17T12:59:56.730Z,5.43
2019-01-17T13:02:21.124Z,5.77
2019-01-17T13:04:45.532Z,5.60
2019-01-17T13:07:09.954Z,6.13
2019-01-17T13:09:34.330Z,6.17
2019-01-17T13:11:58.731Z,6.20
2019-01-17T13:14:23.108Z,6.50
2019-01-17T13:16:47.506Z,5.77
2019-01-17T13:19:11.907Z,5.67
2019-01-17T13:21:36.334Z,4.80
2019-01-17T13:24:00.730Z,3.90
2019-01-17T13:26:25.164Z,3.07
2019-01-17T13:28:49.562Z,2.80
2019-01-17T13:31:13.966Z,2.93
2019-01-17T13:33:38.379Z,2.80
2019-01-17T13:36:03.856Z,3.13
2019-01-17T13:38:28.285Z,3.00
2019-01-17T13:40:52.672Z,2.70
2019-01-17T13:43:17.086Z,2.90
2019-01-17T13:45:41.507Z,2.70
2019-01-17T13:48:06.050Z,3.60
2019-01-17T13:50:30.502Z,3.30
2019-01-17T13:52:54.876Z,3.83
2019-01-17T13:55:19.262Z,4.37
2019-01-17T13:57:43.742Z,4.07
2019-01-17T14:00:19.535Z,4.63
2019-01-17T14:02:43.948Z,5.50
2019-01-17T14:05:08.397Z,6.23
2019-01-17T14:07:32.810Z,6.20
2019-01-17T14:09:57.226Z,6.63
2019-01-17T14:12:21.624Z,6.77
2019-01-17T14:14:46.026Z,7.73
2019-01-17T14:17:10.442Z,8.33
2019-01-17T14:19:35.679Z,8.77
2019-01-17T14:22:00.107Z,8.17
2019-01-17T14:24:24.504Z,8.73
2019-01-17T14:26:48.925Z,8.23
2019-01-17T14:29:13.329Z,7.97
2019-01-17T14:31:37.729Z,8.07
2019-01-17T14:34:02.153Z,7.50
2019-01-17T14:36:26.537Z,8.03
2019-01-17T14:38:50.962Z,8.07
2019-01-17T14:41:15.349Z,7.53
2019-01-17T14:43:39.777Z,7.17
2019-01-17T14:46:04.187Z,8.00
2019-01-17T14:48:28.568Z,7.33
2019-01-17T14:50:53.003Z,7.67
2019-01-17T14:53:17.393Z,9.33
2019-01-17T14:55:41.806Z,10.10
2019-01-17T14:58:06.225Z,9.40
2019-01-17T15:00:32.280Z,10.67
2019-01-17T15:02:56.661Z,7.77
2019-01-17T15:05:21.160Z,7.30
2019-01-17T15:07:45.534Z,7.43
2019-01-17T15:10:15.412Z,5.37
2019-01-17T15:12:39.835Z,5.23
2019-01-17T15:15:05.475Z,4.40
2019-01-17T15:17:29.899Z,4.40
2019-01-17T15:19:54.275Z,4.30
2019-01-17T15:22:18.675Z,4.60
2019-01-17T15:24:43.056Z,4.47
2019-01-17T15:27:07.465Z,4.80
2019-01-17T15:29:31.860Z,4.27
2019-01-17T15:31:56.295Z,4.40
2019-01-17T15:34:20.697Z,5.00
2019-01-17T15:36:45.127Z,4.90
2019-01-17T15:39:09.819Z,5.13
2019-01-17T15:41:34.233Z,5.57
2019-01-17T15:43:58.667Z,5.23
2019-01-17T15:46:23.047Z,6.10
2019-01-17T15:48:47.427Z,6.33
2019-01-17T15:51:11.860Z,6.13
2019-01-17T15:53:36.246Z,7.00
2019-01-17T15:56:00.668Z,4.37
2019-01-17T15:58:25.078Z,5.50
2019-01-17T16:00:49.513Z,5.23
2019-01-17T16:03:13.909Z,4.77
2019-01-17T16:05:38.335Z,6.27
2019-01-17T16:08:02.742Z,3.67
2019-01-17T16:10:27.152Z,3.13
2019-01-17T16:12:51.589Z,3.23
2019-01-17T16:15:18.346Z,2.40
2019-01-17T16:17:42.816Z,2.97
2019-01-17T16:20:12.836Z,2.73
2019-01-17T16:22:37.263Z,2.30
2019-01-17T16:25:01.679Z,1.80
2019-01-17T16:27:26.085Z,2.07
2019-01-17T16:29:50.505Z,1.90
2019-01-17T16:32:14.886Z,1.97
2019-01-17T16:34:39.330Z,1.93
2019-01-17T16:37:03.714Z,1.90
2019-01-17T16:39:28.150Z,1.97
2019-01-17T16:41:52.546Z,1.90
2019-01-17T16:44:16.924Z,2.20
2019-01-17T16:46:41.350Z,2.40
2019-01-17T16:49:05.742Z,2.50
2019-01-17T16:51:30.155Z,2.73
2019-01-17T16:53:54.543Z,2.50
2019-01-17T16:56:18.977Z,2.60
2019-01-17T16:58:43.375Z,2.53
2019-01-17T17:01:07.763Z,2.60
2019-01-17T17:03:32.207Z,3.30
2019-01-17T17:05:56.587Z,2.90
2019-01-17T17:08:21.023Z,2.80
2019-01-17T17:10:45.452Z,2.87
2019-01-17T17:13:09.847Z,3.17
2019-01-17T17:15:34.386Z,2.57
2019-01-17T17:17:58.773Z,3.63
2019-01-17T17:20:24.840Z,3.47
2019-01-17T17:22:49.409Z,3.93
2019-01-17T17:25:13.986Z,3.77
2019-01-17T17:27:38.372Z,3.27
2019-01-17T17:30:03.076Z,3.60
2019-01-17T17:32:30.571Z,2.57
2019-01-17T17:34:54.987Z,3.17
2019-01-17T17:37:19.392Z,3.70
2019-01-17T17:39:43.781Z,3.57
2019-01-17T17:42:08.210Z,3.53
2019-01-17T17:44:32.616Z,3.53
2019-01-17T17:46:57.504Z,3.33
2019-01-17T17:49:21.832Z,3.60
2019-01-17T17:51:46.249Z,3.37
2019-01-17T17:54:10.653Z,3.17
2019-01-17T17:56:35.079Z,3.73
2019-01-17T17:58:59.573Z,3.70
2019-01-17T18:01:24.608Z,3.70
2019-01-17T18:03:49.031Z,3.20
2019-01-17T18:06:13.432Z,3.07
2019-01-17T18:08:37.857Z,3.40
2019-01-17T18:11:02.243Z,2.90
2019-01-17T18:13:26.681Z,3.37
2019-01-17T18:15:51.066Z,3.40
2019-01-17T18:18:15.490Z,3.33
2019-01-17T18:20:39.951Z,3.97
2019-01-17T18:23:04.480Z,3.90
2019-01-17T18:25:28.903Z,3.83
2019-01-17T18:27:53.282Z,4.10
2019-01-17T18:30:23.623Z,3.87
2019-01-17T18:32:48.206Z,3.87
2019-01-17T18:35:13.229Z,3.77
2019-01-17T18:37:37.597Z,3.90
2019-01-17T18:40:02.065Z,3.97
2019-01-17T18:42:26.485Z,3.90
2019-01-17T18:44:50.872Z,3.70
2019-01-17T18:47:30.236Z,4.03
2019-01-17T18:49:54.633Z,3.70
2019-01-17T18:52:19.138Z,3.57
2019-01-17T18:54:43.531Z,2.77
2019-01-17T18:57:07.947Z,2.67
2019-01-17T18:59:32.409Z,2.60
2019-01-17T19:01:56.792Z,2.93
2019-01-17T19:04:21.293Z,2.80
2019-01-17T19:06:45.673Z,3.27
2019-01-17T19:09:10.276Z,3.17
2019-01-17T19:11:34.648Z,3.03
2019-01-17T19:13:59.138Z,2.50
2019-01-17T19:16:23.622Z,2.53
2019-01-17T19:18:48.024Z,2.77
2019-01-17T19:21:12.444Z,2.40
2019-01-17T19:23:36.837Z,2.37
2019-01-17T19:26:01.254Z,2.60
2019-01-17T19:28:25.648Z,3.00
2019-01-17T19:30:50.092Z,2.43
2019-01-17T19:33:14.492Z,2.73
2019-01-17T19:35:38.872Z,2.90
2019-01-17T19:38:03.292Z,2.90
2019-01-17T19:40:29.703Z,3.00
2019-01-17T19:42:54.284Z,2.80
2019-01-17T19:45:18.826Z,2.30
2019-01-17T19:47:43.447Z,2.70
2019-01-17T19:50:10.892Z,2.47
2019-01-17T19:52:35.275Z,2.63
2019-01-17T19:54:59.677Z,2.50
2019-01-17T19:57:24.072Z,2.57
2019-01-17T19:59:48.508Z,3.00
2019-01-17T20:02:12.970Z,3.27
2019-01-17T20:04:41.642Z,3.53
2019-01-17T20:07:03.506Z,3.17
2019-01-17T20:09:27.965Z,2.53
2019-01-17T20:11:52.342Z,2.67
2019-01-17T20:14:16.803Z,2.90
2019-01-17T20:16:41.197Z,3.50
2019-01-17T20:19:05.844Z,3.13
2019-01-17T20:21:30.256Z,3.50
2019-01-17T20:23:54.659Z,3.20
2019-01-17T20:26:19.098Z,3.40
2019-01-17T20:28:43.517Z,3.57
2019-01-17T20:31:08.050Z,3.73
2019-01-17T20:33:32.454Z,3.70
2019-01-17T20:35:56.862Z,3.63
2019-01-17T20:38:21.282Z,3.40
2019-01-17T20:40:45.671Z,3.30
2019-01-17T20:43:10.117Z,4.20
2019-01-17T20:45:34.507Z,4.47
2019-01-17T20:47:58.916Z,3.37
2019-01-17T20:50:26.379Z,3.53
2019-01-17T20:52:50.809Z,3.07
2019-01-17T20:55:15.290Z,3.67
2019-01-17T20:57:40.022Z,2.90
2019-01-17T21:00:16.581Z,3.50
2019-01-17T21:02:40.968Z,3.40
2019-01-17T21:05:07.879Z,3.60
2019-01-17T21:07:32.305Z,3.10
2019-01-17T21:09:56.697Z,3.23
2019-01-17T21:12:21.132Z,2.83
2019-01-17T21:14:45.508Z,2.60
2019-01-17T21:17:09.940Z,2.37
2019-01-17T21:19:34.348Z,2.50
2019-01-17T21:21:58.737Z,2.50
2019-01-17T21:24:23.165Z,2.50
2019-01-17T21:26:47.554Z,2.50
2019-01-17T21:29:11.965Z,2.30
2019-01-17T21:31:36.368Z,1.83
2019-01-17T21:34:00.792Z,2.30
2019-01-17T21:36:25.178Z,1.47
2019-01-17T21:38:49.567Z,1.50
2019-01-17T21:41:13.994Z,1.77
2019-01-17T21:43:38.364Z,1.53
2019-01-17T21:46:02.765Z,1.80
2019-01-17T21:48:27.165Z,1.97
2019-01-17T21:50:51.586Z,1.03
2019-01-17T21:53:15.971Z,1.47
2019-01-17T21:55:40.367Z,1.53
2019-01-17T21:58:04.954Z,2.13
2019-01-17T22:00:30.109Z,1.80
2019-01-17T22:02:54.546Z,2.33
2019-01-17T22:05:18.994Z,2.50
2019-01-17T22:07:43.393Z,2.20
2019-01-17T22:10:10.912Z,2.70
2019-01-17T22:12:35.377Z,2.50
2019-01-17T22:14:59.782Z,2.60
2019-01-17T22:17:26.150Z,2.47
2019-01-17T22:19:50.549Z,2.97
2019-01-17T22:22:15.026Z,2.60
2019-01-17T22:24:39.446Z,3.03
2019-01-17T22:27:03.830Z,2.63
2019-01-17T22:29:28.243Z,2.87
2019-01-17T22:31:52.639Z,2.63
2019-01-17T22:34:17.056Z,2.33
2019-01-17T22:36:41.459Z,3.10
2019-01-17T22:39:06.791Z,3.03
2019-01-17T22:41:31.201Z,3.00
2019-01-17T22:43:55.591Z,2.60
2019-01-17T22:46:20.021Z,3.00
2019-01-17T22:48:44.428Z,2.50
2019-01-17T22:51:08.917Z,2.83
2019-01-17T22:53:33.303Z,3.37
2019-01-17T22:55:57.701Z,2.97
2019-01-17T22:58:22.110Z,3.60
2019-01-17T23:00:50.920Z,2.90
2019-01-17T23:03:15.309Z,3.53
2019-01-17T23:05:39.696Z,3.43
2019-01-17T23:08:04.194Z,3.57
2019-01-17T23:10:28.574Z,3.37
2019-01-17T23:12:53.001Z,3.20
2019-01-17T23:15:17.381Z,4.40
2019-01-17T23:17:41.755Z,2.53
2019-01-17T23:20:09.279Z,2.43
2019-01-17T23:22:33.723Z,1.50
2019-01-17T23:24:58.157Z,1.30
2019-01-17T23:27:22.538Z,1.10
2019-01-17T23:29:46.913Z,1.30
2019-01-17T23:32:11.319Z,1.23
2019-01-17T23:34:35.715Z,1.00
2019-01-17T23:37:00.125Z,1.00
2019-01-17T23:39:24.516Z,0.97
2019-01-17T23:41:48.936Z,0.90
2019-01-17T23:44:13.341Z,0.90
2019-01-17T23:46:37.745Z,1.00
2019-01-17T23:49:02.165Z,0.80
2019-01-17T23:51:26.558Z,0.90
2019-01-17T23:53:50.968Z,0.80
2019-01-17T23:56:15.365Z,0.87
2019-01-17T23:58:39.766Z,1.00
